Time;durP1;ratioP1;P1;durP2;ratioP2;P2;SDS_P1;SDS_P2;PMS_P1;PMS_P2;Temp;Humidity;BMP_temperature;BMP_pressure;BME280_temperature;BME280_humidity;BME280_pressure;Samples;Min_cycle;Max_cycle;Signal;HPM_P1;HPM_P2
2022/04/04 00:00:07;;;;;;;4.68;3.28;;;;;;;;;;5047805;28;20025;-49
2022/04/04 00:02:33;;;;;;;6.07;3.60;;;;;;;;;;5041154;28;20633;-50
2022/04/04 00:04:59;;;;;;;6.65;3.03;;;;;;;;;;5041127;28;20083;-49
2022/04/04 00:07:25;;;;;;;6.30;3.72;;;;;;;;;;5035682;28;20025;-52
2022/04/04 00:09:51;;;;;;;5.63;3.33;;;;;;;;;;5044691;28;20033;-49
2022/04/04 00:12:17;;;;;;;6.30;3.17;;;;;;;;;;5045053;28;20047;-49
2022/04/04 00:14:44;;;;;;;4.20;3.10;;;;;;;;;;5049246;28;20039;-50
2022/04/04 00:17:11;;;;;;;7.78;4.25;;;;;;;;;;5041693;28;20359;-49
2022/04/04 00:19:37;;;;;;;6.43;3.40;;;;;;;;;;5044924;28;20032;-52
2022/04/04 00:22:03;;;;;;;7.43;3.67;;;;;;;;;;5048314;28;20033;-48
2022/04/04 00:24:32;;;;;;;6.28;3.80;;;;;;;;;;5033112;28;20025;-54
2022/04/04 00:26:58;;;;;;;6.15;3.95;;;;;;;;;;5041743;28;20025;-49
2022/04/04 00:29:25;;;;;;;7.63;3.47;;;;;;;;;;5048405;28;20029;-49
2022/04/04 00:31:51;;;;;;;11.13;3.80;;;;;;;;;;5040078;28;20025;-53
2022/04/04 00:34:17;;;;;;;5.40;3.38;;;;;;;;;;5038310;28;20033;-47
2022/04/04 00:36:43;;;;;;;5.40;3.67;;;;;;;;;;5042395;28;20151;-50
2022/04/04 00:39:10;;;;;;;4.75;3.33;;;;;;;;;;5046436;28;20025;-46
2022/04/04 00:41:37;;;;;;;7.40;3.90;;;;;;;;;;5040247;28;20033;-48
2022/04/04 00:44:03;;;;;;;5.80;4.03;;;;;;;;;;5047289;28;20033;-51
2022/04/04 00:46:29;;;;;;;5.82;4.20;;;;;;;;;;5032094;28;20037;-52
2022/04/04 00:48:55;;;;;;;7.60;3.80;;;;;;;;;;5049910;28;20029;-51
2022/04/04 00:51:21;;;;;;;6.22;3.30;;;;;;;;;;5032947;28;20088;-48
2022/04/04 00:53:47;;;;;;;9.93;4.85;;;;;;;;;;5047961;28;20035;-48
2022/04/04 00:56:14;;;;;;;6.03;4.20;;;;;;;;;;5036967;28;20481;-46
2022/04/04 00:58:40;;;;;;;5.90;3.88;;;;;;;;;;5037302;28;20064;-48
2022/04/04 01:01:06;;;;;;;7.80;3.97;;;;;;;;;;5032828;28;20509;-49
2022/04/04 01:03:33;;;;;;;11.10;4.60;;;;;;;;;;5036489;28;21318;-49
2022/04/04 01:05:59;;;;;;;7.85;4.72;;;;;;;;;;5044882;28;20052;-47
2022/04/04 01:08:26;;;;;;;8.50;4.60;;;;;;;;;;5041958;28;20116;-51
2022/04/04 01:10:52;;;;;;;7.00;3.85;;;;;;;;;;5043160;28;20025;-51
2022/04/04 01:13:18;;;;;;;6.88;3.90;;;;;;;;;;5043428;28;20029;-47
2022/04/04 01:15:44;;;;;;;6.18;4.07;;;;;;;;;;5036326;28;20041;-50
2022/04/04 01:18:11;;;;;;;6.40;4.47;;;;;;;;;;5047598;28;20120;-49
2022/04/04 01:20:37;;;;;;;7.68;4.68;;;;;;;;;;5048481;28;20479;-48
2022/04/04 01:23:04;;;;;;;7.82;4.75;;;;;;;;;;5034405;28;20033;-50
2022/04/04 01:25:31;;;;;;;9.68;4.80;;;;;;;;;;5038672;28;20734;-49
2022/04/04 01:27:59;;;;;;;6.05;4.05;;;;;;;;;;5034175;28;20112;-47
2022/04/04 01:30:25;;;;;;;10.15;4.25;;;;;;;;;;5040373;28;20029;-47
2022/04/04 01:32:51;;;;;;;8.73;4.55;;;;;;;;;;5040180;28;20080;-51
2022/04/04 01:35:18;;;;;;;7.25;4.80;;;;;;;;;;5034590;28;20029;-47
2022/04/04 01:37:44;;;;;;;7.72;3.95;;;;;;;;;;5043589;28;20111;-47
2022/04/04 01:40:10;;;;;;;8.85;5.03;;;;;;;;;;5030920;28;20068;-47
2022/04/04 01:42:37;;;;;;;8.98;4.25;;;;;;;;;;5035478;28;20036;-49
2022/04/04 01:45:04;;;;;;;7.65;4.50;;;;;;;;;;5052238;28;20068;-52
2022/04/04 01:47:30;;;;;;;9.50;5.40;;;;;;;;;;5045892;28;20087;-50
2022/04/04 01:49:56;;;;;;;8.70;4.65;;;;;;;;;;5042276;28;20037;-49
2022/04/04 01:52:22;;;;;;;7.80;4.93;;;;;;;;;;5043118;28;20040;-51
2022/04/04 01:54:48;;;;;;;8.48;4.97;;;;;;;;;;5034497;28;20042;-50
2022/04/04 01:57:14;;;;;;;7.13;4.57;;;;;;;;;;5038951;28;20029;-46
2022/04/04 01:59:40;;;;;;;8.82;5.10;;;;;;;;;;5041925;28;20053;-49
2022/04/04 02:02:06;;;;;;;8.20;5.32;;;;;;;;;;5047092;28;20084;-47
2022/04/04 02:04:32;;;;;;;8.55;4.75;;;;;;;;;;5038642;28;20112;-48
2022/04/04 02:06:59;;;;;;;6.60;4.40;;;;;;;;;;5042625;28;20033;-49
2022/04/04 02:09:25;;;;;;;8.10;5.03;;;;;;;;;;5038014;28;20021;-47
2022/04/04 02:11:51;;;;;;;9.75;4.75;;;;;;;;;;5049722;28;20021;-47
2022/04/04 02:14:17;;;;;;;8.40;5.28;;;;;;;;;;5054085;28;20033;-48
2022/04/04 02:16:43;;;;;;;9.63;5.60;;;;;;;;;;5040819;28;20370;-48
2022/04/04 02:19:10;;;;;;;8.32;5.25;;;;;;;;;;5052223;28;20029;-51
2022/04/04 02:21:36;;;;;;;7.03;5.10;;;;;;;;;;5040898;28;20116;-51
2022/04/04 02:24:02;;;;;;;6.45;4.78;;;;;;;;;;5050552;28;20021;-50
2022/04/04 02:26:29;;;;;;;6.45;4.78;;;;;;;;;;5046130;28;20766;-47
2022/04/04 02:28:55;;;;;;;8.13;4.95;;;;;;;;;;5043054;28;20029;-52
2022/04/04 02:31:21;;;;;;;6.82;5.10;;;;;;;;;;5049148;28;20382;-48
2022/04/04 02:33:47;;;;;;;7.88;5.13;;;;;;;;;;5037602;28;20032;-48
2022/04/04 02:36:13;;;;;;;8.20;5.70;;;;;;;;;;5051142;28;20112;-46
2022/04/04 02:38:40;;;;;;;9.52;5.38;;;;;;;;;;5042840;28;20047;-47
2022/04/04 02:41:06;;;;;;;9.07;5.93;;;;;;;;;;5048026;28;20029;-47
2022/04/04 02:43:32;;;;;;;9.20;5.40;;;;;;;;;;5041692;28;20025;-47
2022/04/04 02:45:58;;;;;;;9.35;5.55;;;;;;;;;;5042749;28;20095;-47
2022/04/04 02:48:24;;;;;;;8.10;5.88;;;;;;;;;;5045563;28;20037;-49
2022/04/04 02:50:52;;;;;;;7.40;4.97;;;;;;;;;;5039975;28;20422;-48
2022/04/04 02:53:18;;;;;;;7.82;5.60;;;;;;;;;;5040840;28;20026;-50
2022/04/04 02:58:29;;;;;;;9.38;5.53;;;;;;;;;;5040226;28;20083;-51
2022/04/04 03:00:55;;;;;;;7.72;5.32;;;;;;;;;;5041640;28;20030;-47
2022/04/04 03:03:21;;;;;;;8.75;5.13;;;;;;;;;;5045109;28;20029;-47
2022/04/04 03:05:47;;;;;;;8.18;5.43;;;;;;;;;;5049772;28;20048;-51
2022/04/04 03:08:13;;;;;;;9.73;6.40;;;;;;;;;;5052134;28;20469;-48
2022/04/04 03:10:39;;;;;;;8.25;5.05;;;;;;;;;;5049270;28;20159;-47
2022/04/04 03:13:05;;;;;;;8.48;5.35;;;;;;;;;;5046967;28;20025;-47
2022/04/04 03:15:34;;;;;;;7.75;4.90;;;;;;;;;;5037176;28;20029;-46
2022/04/04 03:18:00;;;;;;;9.00;5.35;;;;;;;;;;5044980;28;20056;-47
2022/04/04 03:20:26;;;;;;;9.73;5.07;;;;;;;;;;5050694;28;20429;-47
2022/04/04 03:22:54;;;;;;;9.20;5.72;;;;;;;;;;5039425;28;20063;-47
2022/04/04 03:25:20;;;;;;;7.55;5.05;;;;;;;;;;5043455;28;20465;-47
2022/04/04 03:27:47;;;;;;;8.13;5.28;;;;;;;;;;5038768;28;20100;-47
2022/04/04 03:30:18;;;;;;;7.00;5.00;;;;;;;;;;5048803;28;20029;-49
2022/04/04 03:32:44;;;;;;;8.80;5.80;;;;;;;;;;5039508;28;20036;-51
2022/04/04 03:35:10;;;;;;;9.98;5.93;;;;;;;;;;5034052;28;20144;-50
2022/04/04 03:37:37;;;;;;;9.10;5.65;;;;;;;;;;5049359;28;20061;-51
2022/04/04 03:40:04;;;;;;;7.47;5.45;;;;;;;;;;5045859;28;20021;-47
2022/04/04 03:42:30;;;;;;;9.88;5.88;;;;;;;;;;5048481;28;20025;-48
2022/04/04 03:44:56;;;;;;;9.65;5.40;;;;;;;;;;5052234;28;20108;-48
2022/04/04 03:47:22;;;;;;;9.00;5.88;;;;;;;;;;5040438;28;20029;-50
2022/04/04 03:49:50;;;;;;;12.77;5.75;;;;;;;;;;5053027;28;20029;-51
2022/04/04 03:52:16;;;;;;;9.45;5.28;;;;;;;;;;5038678;28;20075;-47
2022/04/04 03:54:42;;;;;;;8.13;5.90;;;;;;;;;;5033448;28;20045;-46
2022/04/04 03:57:08;;;;;;;8.30;5.53;;;;;;;;;;5044923;28;20076;-47
2022/04/04 03:59:34;;;;;;;8.48;5.60;;;;;;;;;;5040821;28;20381;-47
2022/04/04 04:02:00;;;;;;;9.02;6.05;;;;;;;;;;5038717;28;20048;-47
2022/04/04 04:04:26;;;;;;;9.43;5.60;;;;;;;;;;5043083;28;20029;-47
2022/04/04 04:06:52;;;;;;;6.70;5.18;;;;;;;;;;5039584;28;20025;-51
2022/04/04 04:09:19;;;;;;;9.80;5.13;;;;;;;;;;5046445;28;20028;-54
2022/04/04 04:11:45;;;;;;;7.40;4.35;;;;;;;;;;5036706;28;20137;-50
2022/04/04 04:14:11;;;;;;;6.47;4.90;;;;;;;;;;5039613;28;20029;-52
2022/04/04 04:16:37;;;;;;;8.48;5.03;;;;;;;;;;5041045;28;20099;-51
2022/04/04 04:19:03;;;;;;;7.88;5.00;;;;;;;;;;5037021;28;20366;-51
2022/04/04 04:21:29;;;;;;;8.85;5.20;;;;;;;;;;5043858;28;20036;-47
2022/04/04 04:23:55;;;;;;;7.88;5.40;;;;;;;;;;5037339;28;20028;-49
2022/04/04 04:26:21;;;;;;;10.98;5.75;;;;;;;;;;5046979;28;20033;-51
2022/04/04 04:28:47;;;;;;;7.03;4.97;;;;;;;;;;5042030;28;20020;-50
2022/04/04 04:31:16;;;;;;;8.50;5.10;;;;;;;;;;5040668;28;20496;-49
2022/04/04 04:33:42;;;;;;;8.35;5.20;;;;;;;;;;5039408;28;20030;-48
2022/04/04 04:36:08;;;;;;;7.05;4.95;;;;;;;;;;5047000;28;20041;-49
2022/04/04 04:38:34;;;;;;;8.30;5.22;;;;;;;;;;5035848;28;20044;-50
2022/04/04 04:41:01;;;;;;;7.80;4.78;;;;;;;;;;5034248;28;20064;-48
2022/04/04 04:43:27;;;;;;;9.75;4.70;;;;;;;;;;5038275;28;20021;-51
2022/04/04 04:45:53;;;;;;;10.60;5.53;;;;;;;;;;5043923;28;20033;-48
2022/04/04 04:48:19;;;;;;;9.05;5.05;;;;;;;;;;5036422;28;20523;-48
2022/04/04 04:50:47;;;;;;;7.32;4.80;;;;;;;;;;5039149;28;20041;-52
2022/04/04 04:53:13;;;;;;;6.80;5.05;;;;;;;;;;5036911;28;20041;-48
2022/04/04 04:55:39;;;;;;;8.82;4.68;;;;;;;;;;5044901;28;20056;-47
2022/04/04 04:58:05;;;;;;;10.77;4.95;;;;;;;;;;5049393;28;20021;-52
2022/04/04 05:00:31;;;;;;;7.78;4.93;;;;;;;;;;5037183;28;20719;-47
2022/04/04 05:05:42;;;;;;;9.93;5.97;;;;;;;;;;5033378;28;20048;-48
2022/04/04 05:08:08;;;;;;;10.63;5.53;;;;;;;;;;5045115;28;20033;-48
2022/04/04 05:10:35;;;;;;;9.20;6.30;;;;;;;;;;5048475;28;20024;-46
2022/04/04 05:13:01;;;;;;;8.45;5.35;;;;;;;;;;5033256;28;20095;-50
2022/04/04 05:15:27;;;;;;;7.90;5.68;;;;;;;;;;5037536;28;20446;-50
2022/04/04 05:17:53;;;;;;;10.63;5.90;;;;;;;;;;5038081;28;20071;-49
2022/04/04 05:20:19;;;;;;;8.38;5.32;;;;;;;;;;5041632;28;20052;-48
2022/04/04 05:22:46;;;;;;;8.57;5.20;;;;;;;;;;5036777;28;20035;-52
2022/04/04 05:25:12;;;;;;;8.00;5.55;;;;;;;;;;5042775;28;20049;-49
2022/04/04 05:27:39;;;;;;;7.07;4.53;;;;;;;;;;5038082;28;20025;-51
2022/04/04 05:30:05;;;;;;;7.63;5.38;;;;;;;;;;5037095;28;20079;-53
2022/04/04 05:32:31;;;;;;;7.88;5.07;;;;;;;;;;5038202;28;20052;-47
2022/04/04 05:34:57;;;;;;;10.43;5.55;;;;;;;;;;5040169;28;20458;-50
2022/04/04 05:37:25;;;;;;;10.70;5.63;;;;;;;;;;5040459;28;20424;-49
2022/04/04 05:39:51;;;;;;;11.25;5.20;;;;;;;;;;5046203;28;20025;-48
2022/04/04 05:42:17;;;;;;;7.45;5.25;;;;;;;;;;5044221;28;20052;-51
2022/04/04 05:44:43;;;;;;;10.13;5.43;;;;;;;;;;5050651;28;20021;-49
2022/04/04 05:47:13;;;;;;;9.82;5.50;;;;;;;;;;5046304;28;20033;-49
2022/04/04 05:49:40;;;;;;;8.48;5.55;;;;;;;;;;5054680;28;20017;-48
2022/04/04 05:52:06;;;;;;;8.35;5.63;;;;;;;;;;5048382;28;20070;-50
2022/04/04 05:54:32;;;;;;;7.60;5.50;;;;;;;;;;5044349;28;20111;-51
2022/04/04 05:56:58;;;;;;;8.27;5.28;;;;;;;;;;5053682;28;20044;-52
2022/04/04 05:59:25;;;;;;;8.35;5.95;;;;;;;;;;5041843;28;20068;-52
2022/04/04 06:01:51;;;;;;;9.40;5.88;;;;;;;;;;5052272;28;20043;-54
2022/04/04 06:04:17;;;;;;;8.93;6.32;;;;;;;;;;5051617;28;20029;-53
2022/04/04 06:06:43;;;;;;;11.02;6.20;;;;;;;;;;5042764;28;20450;-50
2022/04/04 06:09:09;;;;;;;9.90;6.22;;;;;;;;;;5055114;28;20040;-52
2022/04/04 06:11:35;;;;;;;8.38;6.28;;;;;;;;;;5040391;28;20029;-47
2022/04/04 06:14:01;;;;;;;9.70;6.13;;;;;;;;;;5054001;28;20572;-48
2022/04/04 06:16:28;;;;;;;9.50;6.45;;;;;;;;;;5050848;28;20082;-47
2022/04/04 06:18:54;;;;;;;12.73;7.10;;;;;;;;;;5055450;28;20546;-47
2022/04/04 06:21:20;;;;;;;8.57;6.50;;;;;;;;;;5055026;28;20029;-47
2022/04/04 06:23:46;;;;;;;10.13;6.88;;;;;;;;;;5043250;28;20029;-47
2022/04/04 06:26:13;;;;;;;11.35;7.20;;;;;;;;;;5038642;28;20511;-49
2022/04/04 06:28:39;;;;;;;11.18;6.85;;;;;;;;;;5052066;28;20025;-51
2022/04/04 06:31:05;;;;;;;12.07;7.05;;;;;;;;;;5054016;28;20450;-49
2022/04/04 06:33:31;;;;;;;12.00;7.38;;;;;;;;;;5039234;28;20037;-47
2022/04/04 06:35:57;;;;;;;10.32;7.28;;;;;;;;;;5036133;28;20026;-49
2022/04/04 06:38:23;;;;;;;9.82;6.95;;;;;;;;;;5044590;28;20029;-47
2022/04/04 06:40:49;;;;;;;11.68;6.97;;;;;;;;;;5040788;28;20072;-48
2022/04/04 06:43:17;;;;;;;11.18;7.38;;;;;;;;;;5045556;28;20534;-52
2022/04/04 06:45:44;;;;;;;17.33;8.25;;;;;;;;;;5053887;28;20036;-49
2022/04/04 06:48:10;;;;;;;10.48;7.25;;;;;;;;;;5052658;28;20436;-52
2022/04/04 06:50:36;;;;;;;11.68;7.50;;;;;;;;;;5042710;28;20033;-48
2022/04/04 06:53:02;;;;;;;11.70;7.72;;;;;;;;;;5042363;28;20098;-48
2022/04/04 06:55:28;;;;;;;13.30;8.15;;;;;;;;;;5042998;28;20489;-50
2022/04/04 06:57:55;;;;;;;12.65;7.63;;;;;;;;;;5038676;28;20032;-53
2022/04/04 07:00:22;;;;;;;11.95;8.10;;;;;;;;;;5045286;28;20064;-53
2022/04/04 07:02:48;;;;;;;13.90;7.80;;;;;;;;;;5051621;28;20028;-49
2022/04/04 07:05:16;;;;;;;11.38;7.82;;;;;;;;;;5047992;28;20029;-49
2022/04/04 07:07:43;;;;;;;14.27;8.32;;;;;;;;;;5040172;28;20708;-53
2022/04/04 07:10:11;;;;;;;11.68;7.32;;;;;;;;;;5042631;28;20033;-52
2022/04/04 07:12:40;;;;;;;13.75;8.88;;;;;;;;;;5051728;28;20076;-51
2022/04/04 07:15:08;;;;;;;10.57;7.97;;;;;;;;;;5049146;28;20026;-48
2022/04/04 07:17:34;;;;;;;11.68;7.50;;;;;;;;;;5047977;28;20028;-49
2022/04/04 07:20:00;;;;;;;13.90;8.00;;;;;;;;;;5046006;28;20381;-50
2022/04/04 07:22:26;;;;;;;12.73;7.75;;;;;;;;;;5043619;28;20433;-47
2022/04/04 07:24:52;;;;;;;19.40;7.70;;;;;;;;;;5041453;28;20456;-49
2022/04/04 07:27:18;;;;;;;11.90;7.32;;;;;;;;;;5052920;28;20028;-50
2022/04/04 07:29:44;;;;;;;11.65;8.43;;;;;;;;;;5045136;28;20026;-48
2022/04/04 07:32:10;;;;;;;13.35;8.10;;;;;;;;;;5047079;28;20028;-48
2022/04/04 07:34:36;;;;;;;11.15;7.93;;;;;;;;;;5043142;28;20025;-53
2022/04/04 07:37:03;;;;;;;10.73;7.63;;;;;;;;;;5043047;28;20078;-50
2022/04/04 07:39:29;;;;;;;10.82;7.28;;;;;;;;;;5038006;28;20032;-49
2022/04/04 07:41:55;;;;;;;14.55;7.57;;;;;;;;;;5035388;28;20020;-53
2022/04/04 07:44:21;;;;;;;13.93;8.13;;;;;;;;;;5042589;28;20381;-48
2022/04/04 07:46:47;;;;;;;11.63;7.30;;;;;;;;;;5035903;28;20040;-51
2022/04/04 07:49:13;;;;;;;11.45;7.82;;;;;;;;;;5051485;28;20047;-50
2022/04/04 07:51:39;;;;;;;9.50;6.78;;;;;;;;;;5047392;28;20021;-49
2022/04/04 07:54:05;;;;;;;10.65;7.13;;;;;;;;;;5046538;28;20025;-50
2022/04/04 07:56:31;;;;;;;10.02;7.32;;;;;;;;;;5051287;28;20374;-48
2022/04/04 07:58:57;;;;;;;10.48;7.53;;;;;;;;;;5048355;28;20036;-48
2022/04/04 08:01:23;;;;;;;12.45;7.20;;;;;;;;;;5046826;28;20029;-50
2022/04/04 08:03:49;;;;;;;10.68;6.93;;;;;;;;;;5049544;28;20029;-49
2022/04/04 08:06:15;;;;;;;11.13;7.22;;;;;;;;;;5053374;28;20047;-51
2022/04/04 08:08:41;;;;;;;10.23;6.75;;;;;;;;;;5051879;28;20083;-49
2022/04/04 08:11:09;;;;;;;12.00;7.35;;;;;;;;;;5043305;28;20048;-53
2022/04/04 08:13:35;;;;;;;10.52;6.63;;;;;;;;;;5038105;28;20397;-49
2022/04/04 08:16:01;;;;;;;9.50;6.55;;;;;;;;;;5038340;28;20117;-51
2022/04/04 08:18:27;;;;;;;11.38;7.25;;;;;;;;;;5038477;28;20017;-52
2022/04/04 08:20:55;;;;;;;8.25;5.82;;;;;;;;;;5048556;28;20040;-49
2022/04/04 08:23:21;;;;;;;8.82;6.22;;;;;;;;;;5042671;28;20032;-53
2022/04/04 08:25:47;;;;;;;10.48;6.70;;;;;;;;;;5034743;28;20486;-52
2022/04/04 08:28:13;;;;;;;10.60;6.40;;;;;;;;;;5043379;28;20052;-49
2022/04/04 08:30:39;;;;;;;9.52;6.65;;;;;;;;;;5044611;28;20021;-48
2022/04/04 08:33:05;;;;;;;11.23;6.85;;;;;;;;;;5048140;28;20488;-49
2022/04/04 08:35:31;;;;;;;8.52;6.10;;;;;;;;;;5043364;28;20124;-48
2022/04/04 08:37:57;;;;;;;9.30;6.10;;;;;;;;;;5045866;28;20025;-48
2022/04/04 08:40:23;;;;;;;9.52;6.03;;;;;;;;;;5059059;28;20031;-50
2022/04/04 08:42:49;;;;;;;8.13;5.30;;;;;;;;;;5059409;28;20018;-53
2022/04/04 08:45:15;;;;;;;9.30;6.32;;;;;;;;;;5050059;28;20017;-50
2022/04/04 08:47:42;;;;;;;9.27;6.07;;;;;;;;;;5042597;28;20035;-51
2022/04/04 08:50:10;;;;;;;6.60;5.28;;;;;;;;;;5050707;28;20017;-49
2022/04/04 08:52:36;;;;;;;8.55;5.45;;;;;;;;;;5048683;28;20025;-51
2022/04/04 08:55:02;;;;;;;10.13;5.43;;;;;;;;;;5047902;28;20407;-49
2022/04/04 08:57:27;;;;;;;6.95;4.80;;;;;;;;;;5042651;28;20369;-51
2022/04/04 08:59:54;;;;;;;8.52;5.47;;;;;;;;;;5033527;28;20028;-48
2022/04/04 09:02:20;;;;;;;6.90;5.18;;;;;;;;;;5037518;28;20104;-52
2022/04/04 09:04:51;;;;;;;7.55;5.43;;;;;;;;;;5046734;28;20017;-49
2022/04/04 09:07:18;;;;;;;10.20;5.55;;;;;;;;;;5049616;28;20107;-50
2022/04/04 09:09:50;;;;;;;8.10;5.13;;;;;;;;;;5050675;28;20109;-48
2022/04/04 09:12:19;;;;;;;7.68;5.43;;;;;;;;;;5040267;28;20041;-49
2022/04/04 09:14:51;;;;;;;8.18;5.55;;;;;;;;;;5045404;28;20083;-48
2022/04/04 09:17:17;;;;;;;7.25;5.00;;;;;;;;;;5045425;28;20009;-48
2022/04/04 09:19:44;;;;;;;7.72;5.35;;;;;;;;;;5049664;28;20013;-49
2022/04/04 09:22:11;;;;;;;9.55;5.88;;;;;;;;;;5048919;28;20136;-52
2022/04/04 09:24:46;;;;;;;8.80;5.25;;;;;;;;;;5034901;28;20100;-51
2022/04/04 09:27:16;;;;;;;9.13;5.30;;;;;;;;;;5044841;28;20032;-51
2022/04/04 09:29:43;;;;;;;9.57;5.63;;;;;;;;;;5048516;28;20067;-54
2022/04/04 09:32:12;;;;;;;9.50;5.60;;;;;;;;;;5043421;28;20024;-53
2022/04/04 09:35:00;;;;;;;10.10;5.50;;;;;;;;;;5039902;28;20013;-51
2022/04/04 09:37:28;;;;;;;9.25;5.85;;;;;;;;;;5048445;28;20032;-53
2022/04/04 09:40:11;;;;;;;9.68;6.05;;;;;;;;;;5051452;28;20033;-49
2022/04/04 09:42:37;;;;;;;9.40;5.85;;;;;;;;;;5037915;28;20050;-52
2022/04/04 09:45:06;;;;;;;8.80;6.25;;;;;;;;;;5048519;28;20473;-50
2022/04/04 09:47:48;;;;;;;10.68;6.20;;;;;;;;;;5035306;28;20029;-48
2022/04/04 09:50:35;;;;;;;9.70;5.38;;;;;;;;;;5045009;28;20021;-53
2022/04/04 09:53:02;;;;;;;8.60;5.85;;;;;;;;;;5035446;28;20604;-49
2022/04/04 09:55:29;;;;;;;8.50;5.85;;;;;;;;;;5048545;28;20558;-52
2022/04/04 09:57:56;;;;;;;9.60;5.47;;;;;;;;;;5046176;28;20040;-54
2022/04/04 10:00:22;;;;;;;9.05;5.72;;;;;;;;;;5050100;28;20554;-50
2022/04/04 10:02:48;;;;;;;10.07;5.95;;;;;;;;;;5044565;28;20026;-49
2022/04/04 10:05:15;;;;;;;9.85;6.32;;;;;;;;;;5049543;28;20106;-49
2022/04/04 10:07:41;;;;;;;9.48;5.95;;;;;;;;;;5051037;28;20028;-49
2022/04/04 10:10:07;;;;;;;10.52;5.45;;;;;;;;;;5051249;28;20057;-49
2022/04/04 10:12:35;;;;;;;14.27;6.03;;;;;;;;;;5049734;28;20044;-48
2022/04/04 10:15:03;;;;;;;10.30;6.32;;;;;;;;;;5035520;28;20369;-49
2022/04/04 10:17:30;;;;;;;12.77;5.78;;;;;;;;;;5045139;28;20052;-50
2022/04/04 10:19:56;;;;;;;8.73;5.65;;;;;;;;;;5045821;28;20108;-50
2022/04/04 10:22:23;;;;;;;7.85;5.60;;;;;;;;;;5047639;28;20029;-54
2022/04/04 10:24:49;;;;;;;11.18;5.85;;;;;;;;;;5031726;28;20033;-51
2022/04/04 10:27:20;;;;;;;9.63;4.95;;;;;;;;;;5044932;28;20414;-51
2022/04/04 10:29:47;;;;;;;8.35;5.38;;;;;;;;;;5051087;28;20186;-52
2022/04/04 10:32:28;;;;;;;10.50;4.93;;;;;;;;;;5053823;28;20029;-53
2022/04/04 10:34:55;;;;;;;10.35;5.25;;;;;;;;;;5044852;28;20032;-49
2022/04/04 10:37:23;;;;;;;7.97;4.80;;;;;;;;;;5050864;28;20108;-48
2022/04/04 10:39:50;;;;;;;8.38;5.43;;;;;;;;;;5036302;28;20033;-48
2022/04/04 10:42:32;;;;;;;6.95;4.97;;;;;;;;;;5037946;28;20029;-51
2022/04/04 10:45:00;;;;;;;8.52;5.53;;;;;;;;;;5042242;28;20079;-48
2022/04/04 10:47:28;;;;;;;8.80;4.60;;;;;;;;;;5046329;28;20056;-50
2022/04/04 10:49:58;;;;;;;8.68;4.88;;;;;;;;;;5055011;28;20075;-50
2022/04/04 10:52:40;;;;;;;8.90;5.03;;;;;;;;;;5054522;28;20017;-49
2022/04/04 10:55:25;;;;;;;6.05;4.60;;;;;;;;;;5038993;28;20374;-48
2022/04/04 10:57:52;;;;;;;6.82;4.40;;;;;;;;;;5046059;28;20024;-49
2022/04/04 11:00:18;;;;;;;6.97;4.45;;;;;;;;;;5054003;28;20096;-50
2022/04/04 11:02:45;;;;;;;7.25;4.40;;;;;;;;;;5045440;28;20104;-48
2022/04/04 11:08:06;;;;;;;6.70;4.60;;;;;;;;;;5050222;28;20079;-49
2022/04/04 11:10:42;;;;;;;6.75;4.65;;;;;;;;;;5054438;28;20021;-50
2022/04/04 11:13:09;;;;;;;7.53;5.03;;;;;;;;;;5039508;28;20486;-50
2022/04/04 11:15:55;;;;;;;6.43;4.30;;;;;;;;;;5049315;28;20031;-54
2022/04/04 11:18:21;;;;;;;7.72;4.55;;;;;;;;;;5041313;28;20170;-50
2022/04/04 11:20:50;;;;;;;6.95;4.35;;;;;;;;;;5053407;28;20086;-50
2022/04/04 11:23:17;;;;;;;10.90;4.18;;;;;;;;;;5034685;28;20030;-52
2022/04/04 11:25:53;;;;;;;6.70;4.45;;;;;;;;;;5038782;28;20029;-48
2022/04/04 11:28:30;;;;;;;5.43;3.65;;;;;;;;;;5051258;28;20806;-50
2022/04/04 11:31:04;;;;;;;5.63;3.78;;;;;;;;;;5043882;28;20033;-50
2022/04/04 11:33:31;;;;;;;6.13;3.60;;;;;;;;;;5035034;28;21722;-48
2022/04/04 11:35:58;;;;;;;5.88;3.58;;;;;;;;;;5050634;28;20045;-50
2022/04/04 11:38:24;;;;;;;14.55;3.15;;;;;;;;;;5043415;28;20454;-49
2022/04/04 11:40:55;;;;;;;10.40;3.85;;;;;;;;;;5033358;28;20025;-48
2022/04/04 11:43:22;;;;;;;4.53;2.97;;;;;;;;;;5040342;28;20037;-49
2022/04/04 11:45:49;;;;;;;5.18;3.05;;;;;;;;;;5041268;28;20033;-53
2022/04/04 11:48:23;;;;;;;7.30;2.90;;;;;;;;;;5042552;28;20040;-53
2022/04/04 11:50:50;;;;;;;6.18;3.08;;;;;;;;;;5053556;28;20533;-51
2022/04/04 11:53:20;;;;;;;8.77;3.90;;;;;;;;;;5053674;28;20078;-48
2022/04/04 11:55:46;;;;;;;7.72;3.13;;;;;;;;;;5053428;28;20052;-48
2022/04/04 11:58:14;;;;;;;5.18;2.63;;;;;;;;;;5053715;28;20482;-49
2022/04/04 12:00:43;;;;;;;6.75;3.20;;;;;;;;;;5046861;28;20040;-48
2022/04/04 12:03:13;;;;;;;7.35;3.38;;;;;;;;;;5033992;28;20034;-49
2022/04/04 12:05:40;;;;;;;7.80;3.25;;;;;;;;;;5042747;28;20053;-53
2022/04/04 12:08:07;;;;;;;9.48;2.97;;;;;;;;;;5033749;28;20025;-50
2022/04/04 12:10:35;;;;;;;5.68;2.80;;;;;;;;;;5033750;28;20378;-50
2022/04/04 12:13:18;;;;;;;17.45;3.70;;;;;;;;;;5037214;28;20033;-50
2022/04/04 12:15:44;;;;;;;6.37;3.43;;;;;;;;;;5035362;28;20060;-52
2022/04/04 12:18:11;;;;;;;19.10;3.58;;;;;;;;;;5046593;28;20071;-51
2022/04/04 12:20:41;;;;;;;6.75;3.70;;;;;;;;;;5050460;28;20507;-49
2022/04/04 12:26:00;;;;;;;9.02;3.80;;;;;;;;;;5045658;28;20068;-52
2022/04/04 12:28:30;;;;;;;8.48;3.92;;;;;;;;;;5034631;28;20470;-49
2022/04/04 12:30:57;;;;;;;8.95;3.67;;;;;;;;;;5039829;28;20500;-53
2022/04/04 12:33:30;;;;;;;5.95;3.78;;;;;;;;;;5039085;28;20111;-50
2022/04/04 12:35:57;;;;;;;11.73;4.60;;;;;;;;;;5038382;28;20025;-49
2022/04/04 12:38:30;;;;;;;7.82;4.50;;;;;;;;;;5038114;28;20100;-53
2022/04/04 12:41:10;;;;;;;8.32;4.13;;;;;;;;;;5038330;28;20032;-49
2022/04/04 12:43:37;;;;;;;9.82;5.63;;;;;;;;;;5045924;28;20074;-52
2022/04/04 12:46:04;;;;;;;9.07;4.40;;;;;;;;;;5045084;28;20029;-52
2022/04/04 12:48:41;;;;;;;12.75;5.22;;;;;;;;;;5038429;28;20378;-48
2022/04/04 12:51:07;;;;;;;9.52;5.47;;;;;;;;;;5039087;28;20037;-49
2022/04/04 12:53:47;;;;;;;8.52;5.40;;;;;;;;;;5043189;28;20086;-50
2022/04/04 12:56:14;;;;;;;10.30;6.03;;;;;;;;;;5046302;28;20089;-50
2022/04/04 12:58:40;;;;;;;11.25;6.28;;;;;;;;;;5049804;28;20131;-50
2022/04/04 13:01:13;;;;;;;10.07;6.15;;;;;;;;;;5041814;28;20462;-53
2022/04/04 13:03:39;;;;;;;;;;;;;;;;;;5037207;28;20013;-51
2022/04/04 13:06:11;;;;;;;9.63;6.00;;;;;;;;;;5040871;28;20022;-49
2022/04/04 13:08:37;;;;;;;10.98;6.70;;;;;;;;;;5041198;28;20102;-50
2022/04/04 13:11:05;;;;;;;10.68;6.40;;;;;;;;;;5044800;28;20061;-50
2022/04/04 13:13:31;;;;;;;10.73;6.82;;;;;;;;;;5049991;28;20075;-53
2022/04/04 13:15:57;;;;;;;12.15;6.78;;;;;;;;;;5036051;28;20417;-50
2022/04/04 13:18:24;;;;;;;14.82;6.88;;;;;;;;;;5043130;28;20033;-49
2022/04/04 13:20:50;;;;;;;13.88;7.20;;;;;;;;;;5036355;28;20028;-55
2022/04/04 13:23:16;;;;;;;11.00;7.05;;;;;;;;;;5042588;28;20435;-52
2022/04/04 13:25:42;;;;;;;13.15;7.65;;;;;;;;;;5040128;28;20041;-49
2022/04/04 13:28:10;;;;;;;11.85;6.93;;;;;;;;;;5039731;28;20116;-49
2022/04/04 13:30:36;;;;;;;16.52;8.50;;;;;;;;;;5040906;28;20107;-51
2022/04/04 13:33:02;;;;;;;12.88;8.15;;;;;;;;;;5042107;28;20454;-54
2022/04/04 13:35:28;;;;;;;17.23;8.43;;;;;;;;;;5037437;28;20034;-50
2022/04/04 13:37:54;;;;;;;14.60;8.77;;;;;;;;;;5041708;28;20068;-49
2022/04/04 13:40:20;;;;;;;15.23;8.57;;;;;;;;;;5039743;28;20036;-50
2022/04/04 13:42:46;;;;;;;14.00;9.52;;;;;;;;;;5031908;28;20393;-48
2022/04/04 13:45:12;;;;;;;16.88;9.30;;;;;;;;;;5037097;28;20021;-52
2022/04/04 13:47:39;;;;;;;16.60;9.98;;;;;;;;;;5039725;28;20021;-49
2022/04/04 13:50:05;;;;;;;15.88;10.48;;;;;;;;;;5038232;28;20503;-50
2022/04/04 13:52:31;;;;;;;17.58;10.30;;;;;;;;;;5044259;28;20078;-53
2022/04/04 13:54:57;;;;;;;19.48;11.60;;;;;;;;;;5041898;28;20045;-49
2022/04/04 13:57:23;;;;;;;19.63;11.80;;;;;;;;;;5034013;28;20063;-49
2022/04/04 13:59:50;;;;;;;18.92;10.85;;;;;;;;;;5036458;28;20029;-49
2022/04/04 14:02:15;;;;;;;19.10;10.75;;;;;;;;;;5033606;28;20101;-52
2022/04/04 14:04:41;;;;;;;19.35;11.55;;;;;;;;;;5042800;28;20493;-49
2022/04/04 14:07:10;;;;;;;23.02;12.93;;;;;;;;;;5046361;28;21971;-51
2022/04/04 14:09:37;;;;;;;21.15;11.63;;;;;;;;;;5039456;28;20041;-49
2022/04/04 14:12:06;;;;;;;24.33;12.98;;;;;;;;;;5042652;28;20030;-48
2022/04/04 14:14:32;;;;;;;23.27;13.07;;;;;;;;;;5042425;28;20033;-50
2022/04/04 14:17:00;;;;;;;26.85;14.65;;;;;;;;;;5047760;28;20158;-48
2022/04/04 14:19:26;;;;;;;23.27;13.90;;;;;;;;;;5046768;28;20075;-49
2022/04/04 14:21:52;;;;;;;23.45;13.93;;;;;;;;;;5052264;28;20017;-50
2022/04/04 14:24:18;;;;;;;25.02;14.95;;;;;;;;;;5042766;28;20104;-48
2022/04/04 14:26:44;;;;;;;27.77;15.55;;;;;;;;;;5049646;28;20485;-48
2022/04/04 14:29:10;;;;;;;27.83;15.57;;;;;;;;;;5040893;28;20121;-48
2022/04/04 14:31:37;;;;;;;31.88;16.55;;;;;;;;;;5047411;28;20431;-49
2022/04/04 14:34:03;;;;;;;32.30;18.05;;;;;;;;;;5045691;28;20040;-49
2022/04/04 14:36:29;;;;;;;29.55;16.90;;;;;;;;;;5047206;28;20465;-48
2022/04/04 14:38:55;;;;;;;31.52;17.35;;;;;;;;;;5043957;28;20036;-49
2022/04/04 14:41:22;;;;;;;32.40;17.08;;;;;;;;;;5051419;28;20492;-49
2022/04/04 14:43:48;;;;;;;36.33;19.95;;;;;;;;;;5051173;28;20028;-52
2022/04/04 14:46:14;;;;;;;32.83;17.98;;;;;;;;;;5047039;28;20033;-48
2022/04/04 14:48:44;;;;;;;36.80;19.42;;;;;;;;;;5037261;28;20036;-48